createdAt,value
2022-10-14T00:02:00.993Z,7.66
2022-10-14T00:04:27.578Z,7.67
2022-10-14T00:06:54.231Z,7.71
2022-10-14T00:09:20.648Z,7.78
2022-10-14T00:11:47.131Z,7.79
2022-10-14T00:14:17.356Z,7.83
2022-10-14T00:16:46.056Z,7.69
2022-10-14T00:19:12.815Z,7.73
2022-10-14T00:21:41.181Z,7.72
2022-10-14T00:24:07.918Z,7.68
2022-10-14T00:26:36.822Z,7.65
2022-10-14T00:29:05.218Z,7.65
2022-10-14T00:31:32.797Z,7.77
2022-10-14T00:33:59.654Z,7.68
2022-10-14T00:36:26.729Z,7.65
2022-10-14T00:38:53.911Z,7.70
2022-10-14T00:41:29.536Z,7.60
2022-10-14T00:43:58.577Z,7.66
2022-10-14T00:46:26.702Z,7.60
2022-10-14T00:48:53.741Z,7.65
2022-10-14T00:51:20.668Z,7.56
2022-10-14T00:53:47.521Z,7.48
2022-10-14T00:56:16.621Z,7.54
2022-10-14T00:58:43.753Z,7.43
2022-10-14T01:01:10.614Z,7.42
2022-10-14T01:03:37.147Z,7.36
2022-10-14T01:06:09.192Z,7.38
2022-10-14T01:08:42.414Z,7.38
2022-10-14T01:11:28.876Z,7.26
2022-10-14T01:14:24.973Z,7.26
2022-10-14T01:17:00.500Z,7.12
2022-10-14T01:19:29.965Z,7.12
2022-10-14T01:22:00.891Z,7.17
2022-10-14T01:24:41.659Z,7.16
2022-10-14T01:27:19.229Z,7.18
2022-10-14T01:30:04.861Z,7.18
2022-10-14T01:32:38.552Z,7.24
2022-10-14T01:35:32.776Z,7.20
2022-10-14T01:38:03.878Z,7.27
2022-10-14T01:40:46.178Z,7.22
2022-10-14T01:43:13.472Z,7.27
2022-10-14T01:45:42.080Z,7.31
2022-10-14T01:48:09.293Z,7.31
2022-10-14T01:50:36.504Z,7.29
2022-10-14T01:53:06.688Z,7.29
2022-10-14T01:55:36.711Z,7.22
2022-10-14T01:58:04.314Z,7.19
2022-10-14T02:00:31.010Z,7.26
2022-10-14T02:02:57.442Z,7.28
2022-10-14T02:05:40.433Z,7.16
2022-10-14T02:08:12.284Z,7.18
2022-10-14T02:10:49.265Z,7.10
2022-10-14T02:13:31.194Z,7.09
2022-10-14T02:16:06.863Z,7.05
2022-10-14T02:18:41.580Z,6.99
2022-10-14T02:21:26.819Z,7.03
2022-10-14T02:24:21.141Z,7.00
2022-10-14T02:26:48.716Z,7.10
2022-10-14T02:29:15.954Z,7.08
2022-10-14T02:31:43.615Z,7.10
2022-10-14T02:34:11.667Z,7.05
2022-10-14T02:36:38.961Z,7.07
2022-10-14T02:39:06.692Z,7.14
2022-10-14T02:41:35.389Z,7.07
2022-10-14T02:44:01.891Z,7.09
2022-10-14T02:46:29.279Z,7.08
2022-10-14T02:48:55.845Z,7.15
2022-10-14T02:51:22.288Z,7.11
2022-10-14T02:53:48.726Z,7.06
2022-10-14T02:56:16.476Z,7.07
2022-10-14T02:58:42.917Z,6.98
2022-10-14T03:01:09.425Z,7.03
2022-10-14T03:03:36.041Z,7.03
2022-10-14T03:06:02.715Z,6.96
2022-10-14T03:08:29.592Z,6.95
2022-10-14T03:10:56.197Z,6.98
2022-10-14T03:13:22.676Z,6.98
2022-10-14T03:15:50.440Z,6.93
2022-10-14T03:18:17.231Z,7.03
2022-10-14T03:20:47.246Z,7.10
2022-10-14T03:23:14.805Z,7.05
2022-10-14T03:25:43.896Z,6.97
2022-10-14T03:28:10.595Z,7.01
2022-10-14T03:30:37.064Z,7.06
2022-10-14T03:33:03.584Z,7.08
2022-10-14T03:35:30.005Z,7.09
2022-10-14T03:37:56.505Z,7.07
2022-10-14T03:40:23.013Z,7.14
2022-10-14T03:42:49.757Z,7.21
2022-10-14T03:45:16.348Z,7.08
2022-10-14T03:47:42.907Z,7.06
2022-10-14T03:50:09.875Z,7.09
2022-10-14T03:52:36.587Z,7.01
2022-10-14T03:55:03.652Z,6.99
2022-10-14T03:57:30.309Z,6.96
2022-10-14T03:59:56.966Z,6.97
2022-10-14T04:02:23.850Z,6.96
2022-10-14T04:04:50.525Z,7.04
2022-10-14T04:07:17.063Z,6.93
2022-10-14T04:09:43.700Z,6.96
2022-10-14T04:12:10.127Z,6.92
2022-10-14T04:14:36.869Z,6.85
2022-10-14T04:17:03.350Z,6.80
2022-10-14T04:19:31.071Z,6.70
2022-10-14T04:21:57.692Z,6.78
2022-10-14T04:24:24.192Z,6.72
2022-10-14T04:26:52.070Z,6.74
2022-10-14T04:29:19.100Z,6.83
2022-10-14T04:31:45.711Z,6.84
2022-10-14T04:34:12.588Z,6.86
2022-10-14T04:36:39.599Z,6.75
2022-10-14T04:39:06.417Z,6.79
2022-10-14T04:41:32.870Z,6.81
2022-10-14T04:43:59.255Z,6.71
2022-10-14T04:46:25.844Z,6.72
2022-10-14T04:48:52.453Z,6.74
2022-10-14T04:51:19.114Z,6.68
2022-10-14T04:53:45.544Z,6.87
2022-10-14T04:56:11.961Z,6.80
2022-10-14T04:58:38.501Z,6.74
2022-10-14T05:01:05.036Z,6.67
2022-10-14T05:03:32.487Z,6.71
2022-10-14T05:05:59.356Z,6.78
2022-10-14T05:08:25.827Z,6.79
2022-10-14T05:10:52.531Z,6.78
2022-10-14T05:13:19.115Z,6.79
2022-10-14T05:15:45.637Z,6.82
2022-10-14T05:18:12.468Z,6.86
2022-10-14T05:20:39.083Z,6.91
2022-10-14T05:23:06.466Z,6.88
2022-10-14T05:25:33.190Z,6.90
2022-10-14T05:27:59.666Z,7.00
2022-10-14T05:30:30.787Z,7.07
2022-10-14T05:33:00.163Z,7.10
2022-10-14T05:35:53.749Z,7.12
2022-10-14T05:38:13.623Z,7.26
2022-10-14T05:40:40.275Z,7.33
2022-10-14T05:43:07.003Z,7.34
2022-10-14T05:45:33.641Z,7.38
2022-10-14T05:48:00.278Z,7.49
2022-10-14T05:50:26.814Z,7.43
2022-10-14T05:52:53.551Z,7.52
2022-10-14T05:55:20.297Z,7.59
2022-10-14T05:57:46.782Z,7.76
2022-10-14T06:00:14.180Z,7.81
2022-10-14T06:02:40.721Z,7.93
2022-10-14T06:05:07.558Z,7.91
2022-10-14T06:07:35.645Z,8.09
2022-10-14T06:10:02.319Z,8.09
2022-10-14T06:12:29.016Z,8.20
2022-10-14T06:14:55.667Z,8.27
2022-10-14T06:17:22.083Z,8.35
2022-10-14T06:19:48.627Z,8.38
2022-10-14T06:22:15.064Z,8.39
2022-10-14T06:24:41.578Z,8.39
2022-10-14T06:27:08.053Z,8.25
2022-10-14T06:29:37.966Z,8.12
2022-10-14T06:32:05.711Z,8.11
2022-10-14T06:34:32.963Z,8.17
2022-10-14T06:37:02.470Z,8.30
2022-10-14T06:39:29.269Z,8.50
2022-10-14T06:41:55.811Z,8.58
2022-10-14T06:44:22.390Z,8.67
2022-10-14T06:46:49.441Z,8.82
2022-10-14T06:49:16.164Z,8.88
2022-10-14T06:51:42.923Z,8.86
2022-10-14T06:54:09.629Z,8.94
2022-10-14T06:56:36.214Z,9.04
2022-10-14T06:59:02.943Z,9.15
2022-10-14T07:01:29.538Z,9.23
2022-10-14T07:03:56.878Z,9.39
2022-10-14T07:06:23.829Z,9.42
2022-10-14T07:08:50.470Z,9.32
2022-10-14T07:11:16.921Z,9.34
2022-10-14T07:13:43.692Z,9.38
2022-10-14T07:16:10.739Z,9.39
2022-10-14T07:18:37.273Z,9.43
2022-10-14T07:21:04.861Z,9.63
2022-10-14T07:23:33.694Z,9.64
2022-10-14T07:26:00.797Z,9.82
2022-10-14T07:28:27.494Z,10.24
2022-10-14T07:31:20.604Z,10.83
2022-10-14T07:33:47.171Z,12.31
2022-10-14T07:36:18.577Z,14.56
2022-10-14T07:38:48.574Z,15.45
2022-10-14T07:41:20.781Z,15.23
2022-10-14T07:43:49.392Z,14.71
2022-10-14T07:46:28.161Z,13.87
2022-10-14T07:48:59.625Z,13.56
2022-10-14T07:51:27.449Z,14.94
2022-10-14T07:53:55.376Z,15.91
2022-10-14T07:56:22.799Z,16.32
2022-10-14T07:58:49.740Z,15.70
2022-10-14T08:01:18.846Z,15.18
2022-10-14T08:03:46.757Z,14.80
2022-10-14T08:06:14.100Z,15.40
2022-10-14T08:08:41.542Z,15.06
2022-10-14T08:11:10.296Z,15.88
2022-10-14T08:13:41.779Z,17.05
2022-10-14T08:16:23.761Z,17.02
2022-10-14T08:18:51.122Z,14.96
2022-10-14T08:21:18.677Z,14.32
2022-10-14T08:23:45.287Z,14.27
2022-10-14T08:26:22.132Z,14.65
2022-10-14T08:28:49.360Z,14.49
2022-10-14T08:31:16.135Z,14.28
2022-10-14T08:33:42.775Z,13.92
2022-10-14T08:36:10.018Z,13.47
2022-10-14T08:38:36.574Z,13.31
2022-10-14T08:41:26.160Z,13.37
2022-10-14T08:44:11.759Z,13.10
2022-10-14T08:46:52.518Z,12.98
2022-10-14T08:49:45.075Z,12.91
2022-10-14T08:52:18.424Z,13.06
2022-10-14T08:54:48.339Z,13.56
2022-10-14T08:57:27.545Z,13.64
2022-10-14T08:59:54.635Z,13.42
2022-10-14T09:02:39.597Z,13.59
2022-10-14T09:05:06.982Z,13.66
2022-10-14T09:07:34.632Z,13.70
2022-10-14T09:10:06.915Z,13.89
2022-10-14T09:12:37.549Z,14.14
2022-10-14T09:15:38.828Z,14.57
2022-10-14T09:18:14.608Z,14.84
2022-10-14T09:20:41.678Z,14.99
2022-10-14T09:23:12.909Z,15.03
2022-10-14T09:25:45.979Z,14.86
2022-10-14T09:28:12.863Z,14.50
2022-10-14T09:30:40.612Z,14.21
2022-10-14T09:33:13.794Z,14.05
2022-10-14T09:35:42.024Z,13.88
2022-10-14T09:38:08.910Z,14.03
2022-10-14T09:40:37.599Z,14.06
2022-10-14T09:43:10.000Z,13.97
2022-10-14T09:45:57.033Z,13.91
2022-10-14T09:48:37.780Z,13.94
2022-10-14T09:51:18.621Z,14.04
2022-10-14T09:53:56.087Z,13.96
2022-10-14T09:56:29.724Z,13.84
2022-10-14T09:58:57.776Z,13.91
2022-10-14T10:01:26.735Z,13.88
2022-10-14T10:03:54.882Z,13.83
2022-10-14T10:06:25.633Z,13.85
2022-10-14T10:09:01.303Z,13.83
2022-10-14T10:11:35.738Z,13.91
2022-10-14T10:14:18.600Z,13.93
2022-10-14T10:16:45.292Z,14.12
2022-10-14T10:19:29.281Z,13.88
2022-10-14T10:22:26.356Z,13.90
2022-10-14T10:25:12.939Z,13.84
2022-10-14T10:27:51.973Z,14.02
2022-10-14T10:30:20.444Z,14.24
2022-10-14T10:33:24.461Z,14.50
2022-10-14T10:36:20.994Z,14.81
2022-10-14T10:39:03.322Z,15.19
2022-10-14T10:41:52.153Z,15.44
2022-10-14T10:44:23.087Z,15.63
2022-10-14T10:47:33.064Z,15.87
2022-10-14T10:53:29.693Z,15.95
2022-10-14T10:56:13.651Z,16.12
2022-10-14T10:58:57.100Z,16.06
2022-10-14T11:01:54.824Z,15.80
2022-10-14T11:04:34.462Z,15.68
2022-10-14T11:07:31.982Z,15.54
2022-10-14T11:10:26.144Z,15.53
2022-10-14T11:12:59.979Z,15.67
2022-10-14T11:15:33.142Z,15.85
2022-10-14T11:18:04.238Z,15.95
2022-10-14T11:20:57.569Z,15.94
2022-10-14T11:23:34.736Z,16.02
2022-10-14T11:26:18.518Z,16.09
2022-10-14T11:29:11.161Z,16.00
2022-10-14T11:32:09.088Z,16.17
2022-10-14T11:34:48.643Z,16.37
2022-10-14T11:37:23.897Z,16.70
2022-10-14T11:40:41.617Z,16.69
2022-10-14T11:43:22.304Z,16.55
2022-10-14T11:46:21.482Z,16.40
2022-10-14T11:48:59.939Z,16.36
2022-10-14T11:51:36.239Z,16.36
2022-10-14T11:54:17.400Z,16.09
2022-10-14T11:56:57.847Z,15.92
2022-10-14T11:59:37.013Z,16.02
2022-10-14T12:02:14.394Z,15.81
2022-10-14T12:04:44.350Z,15.81
2022-10-14T12:07:20.006Z,15.89
2022-10-14T12:09:59.074Z,15.96
2022-10-14T12:12:28.954Z,16.18
2022-10-14T12:14:59.083Z,16.52
2022-10-14T12:17:39.611Z,16.58
2022-10-14T12:20:33.894Z,16.62
2022-10-14T12:23:01.246Z,16.56
2022-10-14T12:25:31.217Z,16.50
2022-10-14T12:27:57.945Z,16.50
2022-10-14T12:30:41.501Z,16.47
2022-10-14T12:33:22.295Z,16.52
2022-10-14T12:36:01.594Z,16.66
2022-10-14T12:38:31.211Z,16.78
2022-10-14T12:41:33.522Z,16.78
2022-10-14T12:44:03.883Z,17.00
2022-10-14T12:46:32.256Z,17.20
2022-10-14T12:49:00.576Z,16.99
2022-10-14T12:51:27.407Z,17.04
2022-10-14T12:54:06.204Z,16.84
2022-10-14T12:56:36.553Z,16.54
2022-10-14T12:59:06.244Z,16.57
2022-10-14T13:01:35.532Z,16.58
2022-10-14T13:04:07.383Z,16.47
2022-10-14T13:06:42.403Z,16.49
2022-10-14T13:09:12.468Z,16.41
2022-10-14T13:11:39.900Z,16.39
2022-10-14T13:14:35.640Z,16.34
2022-10-14T13:17:03.212Z,16.24
2022-10-14T13:19:32.547Z,16.11
2022-10-14T13:22:04.465Z,16.09
2022-10-14T13:24:41.638Z,16.00
2022-10-14T13:27:13.996Z,15.88
2022-10-14T13:30:04.201Z,15.78
2022-10-14T13:32:52.699Z,15.73
2022-10-14T13:35:45.569Z,15.72
2022-10-14T13:38:15.353Z,15.67
2022-10-14T13:40:55.477Z,15.69
2022-10-14T13:43:43.576Z,15.61
2022-10-14T13:46:31.237Z,15.50
2022-10-14T13:48:59.814Z,15.54
2022-10-14T13:51:38.843Z,15.58
2022-10-14T13:54:11.565Z,15.52
2022-10-14T13:56:38.136Z,15.60
2022-10-14T13:59:39.123Z,15.61
2022-10-14T14:02:15.571Z,15.66
2022-10-14T14:04:51.642Z,15.50
2022-10-14T14:08:07.911Z,15.53
2022-10-14T14:10:10.157Z,15.48
2022-10-14T14:12:36.883Z,15.44
2022-10-14T14:15:04.122Z,15.45
2022-10-14T14:17:33.522Z,15.42
2022-10-14T14:20:00.077Z,15.30
2022-10-14T14:22:31.605Z,15.22
2022-10-14T14:25:46.817Z,15.28
2022-10-14T14:28:13.484Z,15.26
2022-10-14T14:30:40.097Z,15.18
2022-10-14T14:33:17.265Z,15.15
2022-10-14T14:35:53.985Z,15.00
2022-10-14T14:38:32.611Z,15.06
2022-10-14T14:41:21.517Z,14.98
2022-10-14T14:44:01.970Z,14.95
2022-10-14T14:46:38.129Z,14.89
2022-10-14T14:49:05.099Z,14.82
2022-10-14T14:51:36.999Z,14.84
2022-10-14T14:54:04.698Z,14.71
2022-10-14T14:56:40.217Z,14.64
2022-10-14T14:59:27.048Z,14.72
2022-10-14T15:01:54.966Z,14.71
2022-10-14T15:04:25.411Z,14.60
2022-10-14T15:06:58.717Z,14.54
2022-10-14T15:09:38.753Z,14.51
2022-10-14T15:12:07.635Z,14.49
2022-10-14T15:14:42.220Z,14.44
2022-10-14T15:17:55.264Z,14.21
2022-10-14T15:20:29.919Z,14.12
2022-10-14T15:22:56.745Z,14.12
2022-10-14T15:25:23.775Z,14.14
2022-10-14T15:27:52.797Z,14.13
2022-10-14T15:30:37.530Z,14.13
2022-10-14T15:33:18.658Z,13.98
2022-10-14T15:35:46.619Z,13.96
2022-10-14T15:38:16.477Z,13.93
2022-10-14T15:40:43.186Z,13.74
2022-10-14T15:43:20.634Z,13.75
2022-10-14T15:46:10.817Z,13.76
2022-10-14T15:49:01.819Z,13.78
2022-10-14T15:51:33.590Z,13.80
2022-10-14T15:54:00.828Z,13.72
2022-10-14T15:56:29.399Z,13.74
2022-10-14T15:58:56.373Z,13.73
2022-10-14T16:01:23.837Z,13.65
2022-10-14T16:03:55.396Z,13.59
2022-10-14T16:06:24.123Z,13.63
2022-10-14T16:08:51.184Z,13.55
2022-10-14T16:11:28.275Z,13.58
2022-10-14T16:13:55.186Z,13.54
2022-10-14T16:16:32.639Z,13.56
2022-10-14T16:19:02.566Z,13.53
2022-10-14T16:21:33.187Z,13.57
2022-10-14T16:23:59.850Z,13.51
2022-10-14T16:26:26.646Z,13.45
2022-10-14T16:28:53.314Z,13.49
2022-10-14T16:31:21.305Z,13.57
2022-10-14T16:33:51.648Z,13.51
2022-10-14T16:36:18.174Z,13.54
2022-10-14T16:38:44.781Z,13.52
2022-10-14T16:41:12.268Z,13.46
2022-10-14T16:43:39.207Z,13.52
2022-10-14T16:46:09.312Z,13.53
2022-10-14T16:48:38.327Z,13.42
2022-10-14T16:51:05.207Z,13.39
2022-10-14T16:53:41.983Z,13.28
2022-10-14T16:56:38.020Z,13.28
2022-10-14T16:59:05.249Z,13.22
2022-10-14T17:01:34.618Z,13.21
2022-10-14T17:04:01.131Z,13.23
2022-10-14T17:06:27.972Z,13.24
2022-10-14T17:08:55.193Z,13.18
2022-10-14T17:11:22.209Z,13.15
2022-10-14T17:13:52.518Z,13.16
2022-10-14T17:16:19.338Z,13.15
2022-10-14T17:18:46.234Z,13.10
2022-10-14T17:21:13.639Z,12.91
2022-10-14T17:23:44.065Z,12.95
2022-10-14T17:26:15.253Z,12.84
2022-10-14T17:28:42.309Z,12.89
2022-10-14T17:31:11.993Z,12.90
2022-10-14T17:33:39.589Z,12.82
2022-10-14T17:36:07.215Z,12.76
2022-10-14T17:38:34.975Z,12.87
2022-10-14T17:41:03.227Z,12.81
2022-10-14T17:43:29.784Z,12.81
2022-10-14T17:46:04.106Z,12.98
2022-10-14T17:48:32.212Z,12.83
2022-10-14T17:50:59.104Z,12.79
2022-10-14T17:53:25.790Z,12.72
2022-10-14T17:55:55.330Z,12.74
2022-10-14T17:58:24.071Z,12.74
2022-10-14T18:00:50.694Z,12.65
2022-10-14T18:03:18.393Z,12.59
2022-10-14T18:05:48.717Z,12.58
2022-10-14T18:08:15.732Z,12.55
2022-10-14T18:10:42.287Z,12.50
2022-10-14T18:13:08.820Z,12.44
2022-10-14T18:15:36.215Z,12.42
2022-10-14T18:18:02.793Z,12.36
2022-10-14T18:20:29.380Z,12.39
2022-10-14T18:22:56.077Z,12.31
2022-10-14T18:25:22.571Z,12.29
2022-10-14T18:27:49.560Z,12.22
2022-10-14T18:30:16.057Z,12.17
2022-10-14T18:32:42.525Z,12.09
2022-10-14T18:35:09.580Z,12.12
2022-10-14T18:37:36.176Z,12.10
2022-10-14T18:40:02.657Z,12.17
2022-10-14T18:42:29.328Z,12.10
2022-10-14T18:44:56.481Z,12.07
2022-10-14T18:47:24.328Z,12.00
2022-10-14T18:49:51.166Z,11.90
2022-10-14T18:52:18.879Z,11.91
2022-10-14T18:54:45.448Z,11.90
2022-10-14T18:57:14.941Z,11.83
2022-10-14T18:59:41.831Z,11.87
2022-10-14T19:02:12.669Z,11.87
2022-10-14T19:04:39.291Z,11.77
2022-10-14T19:07:07.289Z,11.72
2022-10-14T19:09:33.812Z,11.77
2022-10-14T19:12:00.260Z,11.73
2022-10-14T19:14:28.624Z,11.74
2022-10-14T19:16:55.259Z,11.70
2022-10-14T19:19:22.046Z,11.80
2022-10-14T19:21:50.483Z,11.74
2022-10-14T19:24:17.237Z,11.87
2022-10-14T19:26:44.989Z,11.81
2022-10-14T19:29:13.577Z,11.77
2022-10-14T19:31:41.180Z,11.76
2022-10-14T19:34:09.956Z,11.78
2022-10-14T19:36:38.890Z,11.71
2022-10-14T19:39:06.749Z,11.73
2022-10-14T19:41:35.525Z,11.82
2022-10-14T19:44:02.202Z,11.74
2022-10-14T19:46:29.777Z,11.82
2022-10-14T19:48:58.117Z,11.69
2022-10-14T19:51:25.103Z,11.65
2022-10-14T19:53:51.793Z,11.67
2022-10-14T19:56:18.316Z,11.66
2022-10-14T19:58:45.200Z,11.58
2022-10-14T20:01:16.357Z,11.72
2022-10-14T20:03:43.411Z,11.69
2022-10-14T20:06:10.768Z,11.60
2022-10-14T20:08:37.335Z,11.58
2022-10-14T20:11:08.545Z,11.73
2022-10-14T20:13:37.496Z,11.64
2022-10-14T20:16:05.192Z,11.67
2022-10-14T20:18:32.388Z,11.53
2022-10-14T20:21:01.047Z,11.49
2022-10-14T20:23:27.738Z,11.56
2022-10-14T20:26:01.252Z,11.53
2022-10-14T20:28:27.809Z,11.44
2022-10-14T20:30:54.473Z,11.40
2022-10-14T20:33:21.081Z,11.44
2022-10-14T20:35:47.515Z,11.38
2022-10-14T20:38:14.089Z,11.31
2022-10-14T20:40:40.745Z,11.32
2022-10-14T20:43:07.489Z,11.24
2022-10-14T20:45:33.929Z,11.22
2022-10-14T20:48:00.423Z,11.15
2022-10-14T20:50:27.078Z,11.09
2022-10-14T20:52:53.701Z,11.01
2022-10-14T20:55:20.141Z,11.04
2022-10-14T20:57:46.592Z,10.92
2022-10-14T21:00:13.903Z,10.88
2022-10-14T21:02:40.724Z,10.95
2022-10-14T21:05:07.451Z,10.84
2022-10-14T21:07:34.015Z,10.75
2022-10-14T21:10:00.503Z,10.75
2022-10-14T21:12:26.956Z,10.82
2022-10-14T21:14:53.525Z,10.78
2022-10-14T21:17:19.989Z,10.66
2022-10-14T21:19:48.120Z,10.65
2022-10-14T21:22:14.765Z,10.60
2022-10-14T21:24:41.734Z,10.56
2022-10-14T21:27:08.556Z,10.65
2022-10-14T21:29:35.110Z,10.65
2022-10-14T21:32:02.747Z,10.57
2022-10-14T21:34:30.455Z,10.55
2022-10-14T21:36:57.358Z,10.61
2022-10-14T21:39:26.747Z,10.60
2022-10-14T21:41:53.398Z,10.56
2022-10-14T21:44:21.044Z,10.57
2022-10-14T21:46:48.401Z,10.57
2022-10-14T21:49:15.083Z,10.38
2022-10-14T21:51:41.528Z,10.31
2022-10-14T21:54:10.959Z,10.39
2022-10-14T21:56:37.398Z,10.40
2022-10-14T21:59:04.392Z,10.35
2022-10-14T22:01:31.365Z,10.34
2022-10-14T22:04:03.951Z,10.28
2022-10-14T22:06:32.227Z,10.23
2022-10-14T22:09:00.270Z,10.13
2022-10-14T22:11:32.759Z,10.06
2022-10-14T22:14:01.337Z,10.12
2022-10-14T22:16:29.335Z,10.10
2022-10-14T22:18:58.590Z,10.07
2022-10-14T22:21:27.432Z,10.11
2022-10-14T22:23:53.986Z,10.10
2022-10-14T22:26:24.363Z,10.10
2022-10-14T22:28:57.454Z,9.93
2022-10-14T22:31:24.192Z,9.85
2022-10-14T22:33:50.687Z,9.89
2022-10-14T22:36:23.547Z,9.93
2022-10-14T22:38:51.967Z,9.85
2022-10-14T22:41:18.567Z,9.83
2022-10-14T22:43:55.479Z,9.74
2022-10-14T22:46:24.800Z,9.69
2022-10-14T22:48:56.174Z,9.80
2022-10-14T22:53:58.907Z,9.73
2022-10-14T22:56:28.382Z,9.69
2022-10-14T22:58:56.337Z,9.66
2022-10-14T23:01:23.520Z,9.72
2022-10-14T23:03:50.474Z,9.61
2022-10-14T23:06:17.093Z,9.65
2022-10-14T23:08:43.713Z,9.63
2022-10-14T23:11:17.406Z,9.56
2022-10-14T23:13:44.332Z,9.61
2022-10-14T23:16:16.601Z,9.51
2022-10-14T23:18:43.351Z,9.56
2022-10-14T23:21:44.435Z,9.50
2022-10-14T23:24:11.554Z,9.59
2022-10-14T23:26:38.344Z,9.54
2022-10-14T23:29:07.730Z,9.52
2022-10-14T23:31:35.414Z,9.43
2022-10-14T23:34:06.931Z,9.48
2022-10-14T23:36:33.938Z,9.39
2022-10-14T23:39:00.416Z,9.40
2022-10-14T23:41:26.877Z,9.38
2022-10-14T23:43:53.628Z,9.27
2022-10-14T23:46:20.620Z,9.22
2022-10-14T23:48:55.489Z,9.21
2022-10-14T23:51:33.603Z,9.20
2022-10-14T23:54:00.086Z,9.20
2022-10-14T23:56:26.705Z,9.22
2022-10-14T23:58:53.154Z,9.19
